sensor_id;sensor_type;location;lat;lon;timestamp;pressure;altitude;pressure_sealevel;temperature;humidity
75913;BME280;64592;52.168;21.040;2023-05-10T00:01:59;101027.19;;;8.87;54.08
75913;BME280;64592;52.168;21.040;2023-05-10T00:07:01;101020.31;;;8.82;53.88
75913;BME280;64592;52.168;21.040;2023-05-10T00:12:03;101017.41;;;8.71;54.17
75913;BME280;64592;52.168;21.040;2023-05-10T00:17:06;101012.09;;;8.69;53.90
75913;BME280;64592;52.168;21.040;2023-05-10T00:22:09;101008.09;;;8.61;54.79
75913;BME280;64592;52.168;21.040;2023-05-10T00:27:11;101011.59;;;8.47;55.12
75913;BME280;64592;52.168;21.040;2023-05-10T00:32:15;101004.75;;;8.41;55.17
75913;BME280;64592;52.168;21.040;2023-05-10T00:37:16;101001.44;;;8.36;55.85
75913;BME280;64592;52.168;21.040;2023-05-10T00:42:18;100996.09;;;8.36;54.81
75913;BME280;64592;52.168;21.040;2023-05-10T00:47:24;100985.41;;;8.35;53.96
75913;BME280;64592;52.168;21.040;2023-05-10T00:52:26;100995.88;;;8.39;54.93
75913;BME280;64592;52.168;21.040;2023-05-10T00:57:28;100994.94;;;8.40;54.50
75913;BME280;64592;52.168;21.040;2023-05-10T01:02:33;100989.06;;;8.34;54.49
75913;BME280;64592;52.168;21.040;2023-05-10T01:07:35;100990.22;;;8.28;54.89
75913;BME280;64592;52.168;21.040;2023-05-10T01:12:40;100978.84;;;8.23;54.20
75913;BME280;64592;52.168;21.040;2023-05-10T01:17:45;100982.94;;;8.14;55.07
75913;BME280;64592;52.168;21.040;2023-05-10T01:23:10;100979.72;;;8.08;54.34
75913;BME280;64592;52.168;21.040;2023-05-10T01:28:42;100979.09;;;8.03;54.74
75913;BME280;64592;52.168;21.040;2023-05-10T01:33:56;100979.72;;;7.92;55.21
75913;BME280;64592;52.168;21.040;2023-05-10T01:39:03;100969.38;;;7.85;55.05
75913;BME280;64592;52.168;21.040;2023-05-10T01:44:17;100971.28;;;7.83;55.55
75913;BME280;64592;52.168;21.040;2023-05-10T01:49:24;100963.38;;;7.79;54.98
75913;BME280;64592;52.168;21.040;2023-05-10T01:54:27;100965.31;;;7.77;54.28
75913;BME280;64592;52.168;21.040;2023-05-10T01:59:34;100962.78;;;7.74;54.83
75913;BME280;64592;52.168;21.040;2023-05-10T02:04:41;100961.09;;;7.72;54.84
75913;BME280;64592;52.168;21.040;2023-05-10T02:09:44;100957.25;;;7.77;54.06
75913;BME280;64592;52.168;21.040;2023-05-10T02:14:49;100959.94;;;7.77;54.54
75913;BME280;64592;52.168;21.040;2023-05-10T02:19:55;100950.91;;;7.78;53.81
75913;BME280;64592;52.168;21.040;2023-05-10T02:24:59;100946.66;;;7.74;54.03
75913;BME280;64592;52.168;21.040;2023-05-10T02:30:02;100953.94;;;7.72;55.15
75913;BME280;64592;52.168;21.040;2023-05-10T02:35:08;100955.28;;;7.64;55.09
75913;BME280;64592;52.168;21.040;2023-05-10T02:40:11;100958.22;;;7.59;54.31
75913;BME280;64592;52.168;21.040;2023-05-10T02:45:18;100949.84;;;7.65;54.24
75913;BME280;64592;52.168;21.040;2023-05-10T02:50:26;100954.41;;;7.63;54.80
75913;BME280;64592;52.168;21.040;2023-05-10T02:55:32;100966.13;;;7.62;54.71
75913;BME280;64592;52.168;21.040;2023-05-10T03:00:34;100962.97;;;7.54;55.35
75913;BME280;64592;52.168;21.040;2023-05-10T03:05:38;100963.94;;;7.36;56.23
75913;BME280;64592;52.168;21.040;2023-05-10T03:10:47;100960.84;;;7.26;56.38
75913;BME280;64592;52.168;21.040;2023-05-10T03:15:58;100949.59;;;7.20;57.11
75913;BME280;64592;52.168;21.040;2023-05-10T03:21:04;100962.13;;;7.19;57.44
75913;BME280;64592;52.168;21.040;2023-05-10T03:26:17;100954.94;;;7.20;57.75
75913;BME280;64592;52.168;21.040;2023-05-10T03:31:19;100958.91;;;7.13;57.64
75913;BME280;64592;52.168;21.040;2023-05-10T03:36:22;100960.00;;;7.09;56.98
75913;BME280;64592;52.168;21.040;2023-05-10T03:41:25;100954.41;;;7.13;57.37
75913;BME280;64592;52.168;21.040;2023-05-10T03:46:27;100954.41;;;7.13;57.46
75913;BME280;64592;52.168;21.040;2023-05-10T03:51:30;100953.06;;;7.22;56.61
75913;BME280;64592;52.168;21.040;2023-05-10T03:56:32;100954.00;;;7.21;57.38
75913;BME280;64592;52.168;21.040;2023-05-10T04:01:34;100961.19;;;7.20;56.20
75913;BME280;64592;52.168;21.040;2023-05-10T04:06:38;100955.59;;;7.25;56.31
75913;BME280;64592;52.168;21.040;2023-05-10T04:11:39;100961.44;;;7.33;55.83
75913;BME280;64592;52.168;21.040;2023-05-10T04:16:41;100959.19;;;7.41;56.02
75913;BME280;64592;52.168;21.040;2023-05-10T04:21:45;100961.38;;;7.50;56.51
75913;BME280;64592;52.168;21.040;2023-05-10T04:26:48;100966.53;;;7.55;55.62
75913;BME280;64592;52.168;21.040;2023-05-10T04:31:49;100967.06;;;7.61;55.00
75913;BME280;64592;52.168;21.040;2023-05-10T04:36:53;100970.03;;;7.72;55.75
75913;BME280;64592;52.168;21.040;2023-05-10T04:41:55;100970.34;;;7.84;56.39
75913;BME280;64592;52.168;21.040;2023-05-10T04:46:59;100975.03;;;7.96;55.25
75913;BME280;64592;52.168;21.040;2023-05-10T04:52:04;100970.44;;;7.98;54.97
75913;BME280;64592;52.168;21.040;2023-05-10T04:57:06;100973.91;;;8.00;55.02
75913;BME280;64592;52.168;21.040;2023-05-10T05:02:09;100972.63;;;8.07;55.94
75913;BME280;64592;52.168;21.040;2023-05-10T05:07:13;100973.91;;;8.15;56.04
75913;BME280;64592;52.168;21.040;2023-05-10T05:12:15;100976.97;;;8.25;55.05
75913;BME280;64592;52.168;21.040;2023-05-10T05:17:17;100978.47;;;8.31;55.19
75913;BME280;64592;52.168;21.040;2023-05-10T05:22:22;100978.47;;;8.46;56.21
75913;BME280;64592;52.168;21.040;2023-05-10T05:27:28;100969.63;;;8.60;55.18
75913;BME280;64592;52.168;21.040;2023-05-10T05:32:30;100977.84;;;8.73;55.12
75913;BME280;64592;52.168;21.040;2023-05-10T05:37:33;100970.81;;;8.86;54.55
75913;BME280;64592;52.168;21.040;2023-05-10T05:42:35;100976.25;;;9.00;53.64
75913;BME280;64592;52.168;21.040;2023-05-10T05:47:45;100969.97;;;9.15;53.76
75913;BME280;64592;52.168;21.040;2023-05-10T05:52:48;100971.03;;;9.27;54.19
75913;BME280;64592;52.168;21.040;2023-05-10T05:57:51;100974.44;;;9.45;53.28
75913;BME280;64592;52.168;21.040;2023-05-10T06:02:52;100979.94;;;9.57;53.28
75913;BME280;64592;52.168;21.040;2023-05-10T06:07:59;100974.38;;;9.74;53.01
75913;BME280;64592;52.168;21.040;2023-05-10T06:13:01;100983.91;;;9.94;52.86
75913;BME280;64592;52.168;21.040;2023-05-10T06:18:03;100971.88;;;10.14;52.91
75913;BME280;64592;52.168;21.040;2023-05-10T06:23:08;100977.75;;;10.35;51.30
75913;BME280;64592;52.168;21.040;2023-05-10T06:28:11;100968.59;;;10.52;51.19
75913;BME280;64592;52.168;21.040;2023-05-10T06:33:13;100972.56;;;10.73;50.00
75913;BME280;64592;52.168;21.040;2023-05-10T06:38:25;100972.97;;;10.94;49.37
75913;BME280;64592;52.168;21.040;2023-05-10T06:43:27;100971.59;;;11.13;49.77
75913;BME280;64592;52.168;21.040;2023-05-10T06:48:30;100964.97;;;11.32;50.06
75913;BME280;64592;52.168;21.040;2023-05-10T06:53:34;100974.06;;;11.56;48.21
75913;BME280;64592;52.168;21.040;2023-05-10T06:58:36;100977.31;;;11.74;46.57
75913;BME280;64592;52.168;21.040;2023-05-10T07:03:38;100963.63;;;11.89;47.21
75913;BME280;64592;52.168;21.040;2023-05-10T07:08:44;100964.66;;;12.12;45.50
75913;BME280;64592;52.168;21.040;2023-05-10T07:13:46;100964.31;;;12.29;45.49
75913;BME280;64592;52.168;21.040;2023-05-10T07:18:48;100961.97;;;12.49;43.54
75913;BME280;64592;52.168;21.040;2023-05-10T07:23:53;100965.03;;;12.68;40.95
75913;BME280;64592;52.168;21.040;2023-05-10T07:28:55;100958.06;;;12.89;40.88
75913;BME280;64592;52.168;21.040;2023-05-10T07:33:58;100967.47;;;13.07;38.77
75913;BME280;64592;52.168;21.040;2023-05-10T07:39:03;100956.59;;;13.20;39.02
75913;BME280;64592;52.168;21.040;2023-05-10T07:44:06;100961.56;;;13.37;36.39
75913;BME280;64592;52.168;21.040;2023-05-10T07:49:07;100964.94;;;13.52;34.70
75913;BME280;64592;52.168;21.040;2023-05-10T07:54:11;100946.72;;;13.65;35.06
75913;BME280;64592;52.168;21.040;2023-05-10T07:59:15;100938.63;;;13.76;33.49
75913;BME280;64592;52.168;21.040;2023-05-10T08:04:17;100946.03;;;13.85;33.38
75913;BME280;64592;52.168;21.040;2023-05-10T08:09:22;100937.16;;;13.94;34.73
75913;BME280;64592;52.168;21.040;2023-05-10T08:14:24;100951.09;;;14.12;32.40
75913;BME280;64592;52.168;21.040;2023-05-10T08:19:26;100941.81;;;14.26;32.47
75913;BME280;64592;52.168;21.040;2023-05-10T08:24:29;100941.09;;;14.35;32.49
75913;BME280;64592;52.168;21.040;2023-05-10T08:29:31;100939.50;;;14.44;32.48
75913;BME280;64592;52.168;21.040;2023-05-10T08:34:33;100928.25;;;14.48;31.03
75913;BME280;64592;52.168;21.040;2023-05-10T08:39:36;100943.16;;;14.54;32.40
75913;BME280;64592;52.168;21.040;2023-05-10T08:44:38;100950.56;;;14.63;32.24
75913;BME280;64592;52.168;21.040;2023-05-10T08:49:41;100930.69;;;14.62;31.96
75913;BME280;64592;52.168;21.040;2023-05-10T08:54:46;100946.69;;;14.76;31.18
75913;BME280;64592;52.168;21.040;2023-05-10T08:59:48;100930.75;;;14.83;30.61
75913;BME280;64592;52.168;21.040;2023-05-10T09:04:53;100925.66;;;14.90;29.80
75913;BME280;64592;52.168;21.040;2023-05-10T09:09:57;100927.03;;;14.95;29.98
75913;BME280;64592;52.168;21.040;2023-05-10T09:15:07;100917.03;;;14.96;30.04
75913;BME280;64592;52.168;21.040;2023-05-10T09:20:10;100915.50;;;15.03;32.14
75913;BME280;64592;52.168;21.040;2023-05-10T09:25:18;100909.25;;;15.12;31.08
75913;BME280;64592;52.168;21.040;2023-05-10T09:30:25;100920.09;;;15.23;31.53
75913;BME280;64592;52.168;21.040;2023-05-10T09:35:28;100922.72;;;15.34;33.23
75913;BME280;64592;52.168;21.040;2023-05-10T09:40:35;100907.78;;;15.40;31.18
75913;BME280;64592;52.168;21.040;2023-05-10T09:45:38;100918.97;;;15.46;30.60
75913;BME280;64592;52.168;21.040;2023-05-10T09:50:42;100909.03;;;15.57;30.38
75913;BME280;64592;52.168;21.040;2023-05-10T09:55:46;100901.94;;;15.65;31.65
75913;BME280;64592;52.168;21.040;2023-05-10T10:00:53;100899.47;;;15.83;31.70
75913;BME280;64592;52.168;21.040;2023-05-10T10:05:55;100914.28;;;16.00;29.69
75913;BME280;64592;52.168;21.040;2023-05-10T10:11:07;100908.47;;;16.14;29.70
75913;BME280;64592;52.168;21.040;2023-05-10T10:16:09;100892.44;;;16.20;30.59
75913;BME280;64592;52.168;21.040;2023-05-10T10:21:13;100884.31;;;16.40;30.61
75913;BME280;64592;52.168;21.040;2023-05-10T10:26:18;100880.06;;;16.56;29.12
75913;BME280;64592;52.168;21.040;2023-05-10T10:31:27;100886.06;;;16.60;29.02
75913;BME280;64592;52.168;21.040;2023-05-10T10:36:43;100884.38;;;16.59;28.37
75913;BME280;64592;52.168;21.040;2023-05-10T10:41:51;100882.25;;;16.72;30.13
75913;BME280;64592;52.168;21.040;2023-05-10T10:47:01;100866.78;;;16.82;28.01
75913;BME280;64592;52.168;21.040;2023-05-10T10:52:21;100863.47;;;17.07;27.84
75913;BME280;64592;52.168;21.040;2023-05-10T10:57:25;100867.91;;;17.08;27.33
75913;BME280;64592;52.168;21.040;2023-05-10T11:02:39;100843.53;;;17.17;27.65
75913;BME280;64592;52.168;21.040;2023-05-10T11:07:53;100845.78;;;17.31;27.46
75913;BME280;64592;52.168;21.040;2023-05-10T11:13:01;100846.94;;;17.38;27.31
75913;BME280;64592;52.168;21.040;2023-05-10T11:18:18;100847.72;;;17.58;27.58
75913;BME280;64592;52.168;21.040;2023-05-10T11:23:22;100842.56;;;17.64;27.13
75913;BME280;64592;52.168;21.040;2023-05-10T11:28:26;100832.34;;;17.76;27.39
75913;BME280;64592;52.168;21.040;2023-05-10T11:33:29;100837.03;;;17.83;27.61
75913;BME280;64592;52.168;21.040;2023-05-10T11:38:32;100830.06;;;17.99;27.78
75913;BME280;64592;52.168;21.040;2023-05-10T11:43:36;100846.94;;;18.12;27.87
75913;BME280;64592;52.168;21.040;2023-05-10T11:48:40;100825.59;;;18.07;26.74
75913;BME280;64592;52.168;21.040;2023-05-10T11:53:46;100830.81;;;18.18;26.66
75913;BME280;64592;52.168;21.040;2023-05-10T11:58:54;100828.91;;;18.29;27.59
75913;BME280;64592;52.168;21.040;2023-05-10T12:04:02;100829.59;;;18.48;27.77
75913;BME280;64592;52.168;21.040;2023-05-10T12:09:08;100818.63;;;18.76;26.56
75913;BME280;64592;52.168;21.040;2023-05-10T12:14:13;100810.34;;;18.68;25.73
75913;BME280;64592;52.168;21.040;2023-05-10T12:19:18;100805.59;;;18.70;25.59
75913;BME280;64592;52.168;21.040;2023-05-10T12:24:21;100823.56;;;18.72;26.30
75913;BME280;64592;52.168;21.040;2023-05-10T12:29:30;100826.53;;;18.96;25.84
75913;BME280;64592;52.168;21.040;2023-05-10T12:34:33;100822.22;;;19.20;25.71
75913;BME280;64592;52.168;21.040;2023-05-10T12:39:40;100818.69;;;19.27;26.17
75913;BME280;64592;52.168;21.040;2023-05-10T12:44:45;100797.91;;;19.34;25.92
75913;BME280;64592;52.168;21.040;2023-05-10T12:49:49;100819.75;;;19.26;25.75
75913;BME280;64592;52.168;21.040;2023-05-10T12:54:51;100807.75;;;19.27;25.87
75913;BME280;64592;52.168;21.040;2023-05-10T12:59:55;100800.81;;;19.59;25.18
75913;BME280;64592;52.168;21.040;2023-05-10T13:04:57;100789.91;;;19.67;24.99
75913;BME280;64592;52.168;21.040;2023-05-10T13:09:58;100800.09;;;19.83;25.57
75913;BME280;64592;52.168;21.040;2023-05-10T13:15:04;100796.25;;;20.17;24.29
75913;BME280;64592;52.168;21.040;2023-05-10T13:20:07;100783.94;;;20.13;24.20
75913;BME280;64592;52.168;21.040;2023-05-10T13:25:10;100782.59;;;20.26;24.29
75913;BME280;64592;52.168;21.040;2023-05-10T13:30:14;100795.72;;;20.72;23.50
75913;BME280;64592;52.168;21.040;2023-05-10T13:35:17;100783.56;;;20.75;23.12
75913;BME280;64592;52.168;21.040;2023-05-10T13:40:21;100782.34;;;20.93;22.78
75913;BME280;64592;52.168;21.040;2023-05-10T13:45:26;100793.16;;;20.95;22.10
75913;BME280;64592;52.168;21.040;2023-05-10T13:50:28;100775.47;;;21.06;22.57
75913;BME280;64592;52.168;21.040;2023-05-10T13:55:31;100783.00;;;21.28;22.90
75913;BME280;64592;52.168;21.040;2023-05-10T14:00:35;100765.88;;;21.34;22.33
75913;BME280;64592;52.168;21.040;2023-05-10T14:05:37;100762.72;;;21.53;22.00
75913;BME280;64592;52.168;21.040;2023-05-10T14:10:39;100758.06;;;21.62;21.46
75913;BME280;64592;52.168;21.040;2023-05-10T14:15:44;100749.72;;;21.86;22.23
75913;BME280;64592;52.168;21.040;2023-05-10T14:20:48;100752.88;;;21.75;21.10
75913;BME280;64592;52.168;21.040;2023-05-10T14:25:53;100748.81;;;21.63;21.11
75913;BME280;64592;52.168;21.040;2023-05-10T14:30:57;100750.28;;;21.74;21.73
75913;BME280;64592;52.168;21.040;2023-05-10T14:35:59;100748.53;;;21.81;21.16
75913;BME280;64592;52.168;21.040;2023-05-10T14:41:04;100750.78;;;21.85;21.23
75913;BME280;64592;52.168;21.040;2023-05-10T14:46:08;100757.47;;;21.83;20.75
75913;BME280;64592;52.168;21.040;2023-05-10T14:51:10;100741.94;;;22.06;21.05
75913;BME280;64592;52.168;21.040;2023-05-10T14:56:15;100744.78;;;22.43;21.27
75913;BME280;64592;52.168;21.040;2023-05-10T15:01:22;100746.34;;;22.61;20.48
75913;BME280;64592;52.168;21.040;2023-05-10T15:06:30;100741.06;;;22.82;20.41
75913;BME280;64592;52.168;21.040;2023-05-10T15:11:33;100741.66;;;23.07;20.33
75913;BME280;64592;52.168;21.040;2023-05-10T15:16:36;100729.47;;;23.39;20.01
75913;BME280;64592;52.168;21.040;2023-05-10T15:21:39;100739.13;;;23.35;20.35
75913;BME280;64592;52.168;21.040;2023-05-10T15:26:43;100739.16;;;23.64;20.20
75913;BME280;64592;52.168;21.040;2023-05-10T15:31:47;100736.00;;;23.82;19.41
75913;BME280;64592;52.168;21.040;2023-05-10T15:36:49;100738.63;;;24.05;19.44
75913;BME280;64592;52.168;21.040;2023-05-10T15:41:55;100729.66;;;24.17;18.81
75913;BME280;64592;52.168;21.040;2023-05-10T15:47:05;100725.41;;;23.49;19.31
75913;BME280;64592;52.168;21.040;2023-05-10T15:52:14;100724.88;;;22.41;20.30
75913;BME280;64592;52.168;21.040;2023-05-10T15:57:23;100732.13;;;21.64;21.27
75913;BME280;64592;52.168;21.040;2023-05-10T16:02:27;100730.44;;;20.84;21.02
75913;BME280;64592;52.168;21.040;2023-05-10T16:07:30;100726.78;;;20.10;21.72
75913;BME280;64592;52.168;21.040;2023-05-10T16:12:35;100725.63;;;19.63;22.46
75913;BME280;64592;52.168;21.040;2023-05-10T16:17:46;100728.13;;;19.22;23.05
75913;BME280;64592;52.168;21.040;2023-05-10T16:22:50;100730.19;;;18.77;23.44
75913;BME280;64592;52.168;21.040;2023-05-10T16:27:52;100733.81;;;18.42;23.21
75913;BME280;64592;52.168;21.040;2023-05-10T16:32:56;100732.91;;;18.15;23.24
75913;BME280;64592;52.168;21.040;2023-05-10T16:38:00;100728.94;;;17.82;24.67
75913;BME280;64592;52.168;21.040;2023-05-10T16:43:03;100735.69;;;17.78;25.25
75913;BME280;64592;52.168;21.040;2023-05-10T16:54:03;100740.13;;;17.52;26.10
75913;BME280;64592;52.168;21.040;2023-05-10T16:59:08;100739.03;;;17.35;25.69
75913;BME280;64592;52.168;21.040;2023-05-10T17:04:24;100730.63;;;17.29;25.90
75913;BME280;64592;52.168;21.040;2023-05-10T17:15:18;100752.66;;;16.98;25.89
75913;BME280;64592;52.168;21.040;2023-05-10T17:20:21;100753.09;;;16.94;26.32
75913;BME280;64592;52.168;21.040;2023-05-10T17:25:23;100751.38;;;16.83;26.13
75913;BME280;64592;52.168;21.040;2023-05-10T17:30:26;100749.56;;;16.74;27.33
75913;BME280;64592;52.168;21.040;2023-05-10T17:35:33;100763.72;;;16.58;27.76
75913;BME280;64592;52.168;21.040;2023-05-10T17:40:39;100770.16;;;16.48;28.30
75913;BME280;64592;52.168;21.040;2023-05-10T17:45:47;100765.28;;;16.32;28.59
75913;BME280;64592;52.168;21.040;2023-05-10T17:50:50;100779.44;;;16.16;28.37
75913;BME280;64592;52.168;21.040;2023-05-10T17:55:52;100774.03;;;16.07;28.64
75913;BME280;64592;52.168;21.040;2023-05-10T18:00:58;100776.84;;;15.96;29.46
75913;BME280;64592;52.168;21.040;2023-05-10T18:06:01;100783.28;;;15.85;29.44
75913;BME280;64592;52.168;21.040;2023-05-10T18:11:07;100791.25;;;15.77;29.52
75913;BME280;64592;52.168;21.040;2023-05-10T18:16:14;100790.78;;;15.72;30.08
75913;BME280;64592;52.168;21.040;2023-05-10T18:21:16;100791.91;;;15.60;30.62
75913;BME280;64592;52.168;21.040;2023-05-10T18:26:19;100795.41;;;15.50;30.84
75913;BME280;64592;52.168;21.040;2023-05-10T18:31:23;100799.94;;;15.40;31.06
75913;BME280;64592;52.168;21.040;2023-05-10T18:36:26;100807.72;;;15.24;31.35
75913;BME280;64592;52.168;21.040;2023-05-10T18:41:29;100821.13;;;15.16;31.86
75913;BME280;64592;52.168;21.040;2023-05-10T18:46:33;100815.75;;;15.05;32.11
75913;BME280;64592;52.168;21.040;2023-05-10T18:51:36;100821.72;;;14.99;32.53
75913;BME280;64592;52.168;21.040;2023-05-10T18:56:38;100827.09;;;14.89;32.70
75913;BME280;64592;52.168;21.040;2023-05-10T19:01:44;100828.72;;;14.81;33.09
75913;BME280;64592;52.168;21.040;2023-05-10T19:06:48;100829.63;;;14.70;33.04
75913;BME280;64592;52.168;21.040;2023-05-10T19:11:58;100821.69;;;14.57;33.55
75913;BME280;64592;52.168;21.040;2023-05-10T19:17:03;100825.03;;;14.50;33.65
75913;BME280;64592;52.168;21.040;2023-05-10T19:22:05;100832.09;;;14.41;33.97
75913;BME280;64592;52.168;21.040;2023-05-10T19:27:11;100836.78;;;14.39;34.06
75913;BME280;64592;52.168;21.040;2023-05-10T19:32:14;100828.88;;;14.36;34.51
75913;BME280;64592;52.168;21.040;2023-05-10T19:37:16;100835.66;;;14.30;34.54
75913;BME280;64592;52.168;21.040;2023-05-10T19:42:18;100834.59;;;14.22;34.25
75913;BME280;64592;52.168;21.040;2023-05-10T19:47:21;100840.50;;;14.16;34.75
75913;BME280;64592;52.168;21.040;2023-05-10T19:52:23;100838.44;;;14.08;35.56
75913;BME280;64592;52.168;21.040;2023-05-10T19:57:25;100832.91;;;13.98;35.14
75913;BME280;64592;52.168;21.040;2023-05-10T20:02:30;100842.78;;;13.88;35.46
75913;BME280;64592;52.168;21.040;2023-05-10T20:07:32;100843.03;;;13.74;35.67
75913;BME280;64592;52.168;21.040;2023-05-10T20:12:34;100848.97;;;13.68;35.91
75913;BME280;64592;52.168;21.040;2023-05-10T20:17:37;100851.19;;;13.63;36.26
75913;BME280;64592;52.168;21.040;2023-05-10T20:22:44;100850.31;;;13.51;36.32
75913;BME280;64592;52.168;21.040;2023-05-10T20:27:46;100860.13;;;13.41;36.58
75913;BME280;64592;52.168;21.040;2023-05-10T20:32:52;100848.22;;;13.33;37.54
75913;BME280;64592;52.168;21.040;2023-05-10T20:37:54;100848.94;;;13.24;37.75
75913;BME280;64592;52.168;21.040;2023-05-10T20:42:56;100848.56;;;13.17;37.58
75913;BME280;64592;52.168;21.040;2023-05-10T20:47:59;100860.81;;;13.10;38.00
75913;BME280;64592;52.168;21.040;2023-05-10T20:53:01;100861.16;;;13.05;38.08
75913;BME280;64592;52.168;21.040;2023-05-10T20:58:03;100862.00;;;12.95;38.48
75913;BME280;64592;52.168;21.040;2023-05-10T21:03:08;100877.09;;;12.86;38.16
75913;BME280;64592;52.168;21.040;2023-05-10T21:08:11;100874.97;;;12.78;38.51
75913;BME280;64592;52.168;21.040;2023-05-10T21:13:13;100871.13;;;12.70;38.93
75913;BME280;64592;52.168;21.040;2023-05-10T21:18:23;100881.75;;;12.60;39.31
75913;BME280;64592;52.168;21.040;2023-05-10T21:23:25;100889.16;;;12.58;39.45
75913;BME280;64592;52.168;21.040;2023-05-10T21:28:26;100887.25;;;12.48;39.39
75913;BME280;64592;52.168;21.040;2023-05-10T21:33:29;100884.25;;;12.39;39.76
75913;BME280;64592;52.168;21.040;2023-05-10T21:38:32;100884.91;;;12.30;39.95
75913;BME280;64592;52.168;21.040;2023-05-10T21:43:35;100884.88;;;12.19;40.04
75913;BME280;64592;52.168;21.040;2023-05-10T21:48:38;100889.50;;;12.17;40.59
75913;BME280;64592;52.168;21.040;2023-05-10T21:53:40;100893.88;;;12.07;40.74
75913;BME280;64592;52.168;21.040;2023-05-10T21:58:42;100899.09;;;11.97;40.82
75913;BME280;64592;52.168;21.040;2023-05-10T22:03:45;100898.88;;;11.88;41.47
75913;BME280;64592;52.168;21.040;2023-05-10T22:08:47;100899.13;;;11.85;41.32
75913;BME280;64592;52.168;21.040;2023-05-10T22:13:49;100900.63;;;11.76;41.75
75913;BME280;64592;52.168;21.040;2023-05-10T22:18:55;100910.00;;;11.71;41.96
75913;BME280;64592;52.168;21.040;2023-05-10T22:23:57;100907.97;;;11.61;42.12
75913;BME280;64592;52.168;21.040;2023-05-10T22:28:59;100918.34;;;11.55;42.45
75913;BME280;64592;52.168;21.040;2023-05-10T22:34:02;100914.66;;;11.43;42.09
75913;BME280;64592;52.168;21.040;2023-05-10T22:39:04;100918.53;;;11.39;42.85
75913;BME280;64592;52.168;21.040;2023-05-10T22:44:06;100925.25;;;11.34;42.75
75913;BME280;64592;52.168;21.040;2023-05-10T22:49:14;100921.09;;;11.28;42.75
75913;BME280;64592;52.168;21.040;2023-05-10T22:54:16;100926.50;;;11.28;42.47
75913;BME280;64592;52.168;21.040;2023-05-10T22:59:18;100921.72;;;11.19;43.51
75913;BME280;64592;52.168;21.040;2023-05-10T23:04:22;100928.66;;;11.10;43.85
75913;BME280;64592;52.168;21.040;2023-05-10T23:09:24;100927.34;;;11.03;43.88
75913;BME280;64592;52.168;21.040;2023-05-10T23:14:25;100935.53;;;11.02;43.67
75913;BME280;64592;52.168;21.040;2023-05-10T23:19:33;100931.63;;;10.93;44.19
75913;BME280;64592;52.168;21.040;2023-05-10T23:24:35;100937.44;;;10.87;44.33
75913;BME280;64592;52.168;21.040;2023-05-10T23:29:38;100930.50;;;10.83;44.52
75913;BME280;64592;52.168;21.040;2023-05-10T23:34:41;100924.22;;;10.70;45.28
75913;BME280;64592;52.168;21.040;2023-05-10T23:39:43;100920.50;;;10.58;45.18
75913;BME280;64592;52.168;21.040;2023-05-10T23:44:46;100930.84;;;10.52;45.25
75913;BME280;64592;52.168;21.040;2023-05-10T23:49:50;100932.09;;;10.46;46.09
75913;BME280;64592;52.168;21.040;2023-05-10T23:54:55;100935.28;;;10.38;46.17
75913;BME280;64592;52.168;21.040;2023-05-10T23:59:57;100932.81;;;10.35;45.76
